createdAt,value
2018-09-01T00:00:50.901Z,1.50
2018-09-01T00:01:50.882Z,1.60
2018-09-01T00:02:50.865Z,1.80
2018-09-01T00:03:50.888Z,1.60
2018-09-01T00:04:50.874Z,1.50
2018-09-01T00:05:50.843Z,1.60
2018-09-01T00:06:50.857Z,1.60
2018-09-01T00:07:50.813Z,1.60
2018-09-01T00:08:50.832Z,1.70
2018-09-01T00:09:50.818Z,1.50
2018-09-01T00:10:50.836Z,1.50
2018-09-01T00:11:50.769Z,1.50
2018-09-01T00:12:50.759Z,1.40
2018-09-01T00:13:50.730Z,1.70
2018-09-01T00:14:50.747Z,1.50
2018-09-01T00:15:50.874Z,1.30
2018-09-01T00:16:50.754Z,1.60
2018-09-01T00:17:50.700Z,1.60
2018-09-01T00:18:50.690Z,1.60
2018-09-01T00:19:50.671Z,1.40
2018-09-01T00:20:50.654Z,1.50
2018-09-01T00:21:50.637Z,1.30
2018-09-01T00:22:55.484Z,1.40
2018-09-01T00:23:50.633Z,1.60
2018-09-01T00:24:50.621Z,1.50
2018-09-01T00:25:50.586Z,1.80
2018-09-01T00:26:50.597Z,1.90
2018-09-01T00:27:50.604Z,1.50
2018-09-01T00:28:50.599Z,1.50
2018-09-01T00:29:50.596Z,1.70
2018-09-01T00:30:50.556Z,1.40
2018-09-01T00:31:50.530Z,1.50
2018-09-01T00:32:50.532Z,1.40
2018-09-01T00:33:50.525Z,1.50
2018-09-01T00:34:50.548Z,1.40
2018-09-01T00:35:50.509Z,1.60
2018-09-01T00:36:50.501Z,1.50
2018-09-01T00:37:50.448Z,1.60
2018-09-01T00:38:50.457Z,1.80
2018-09-01T00:39:50.452Z,1.40
2018-09-01T00:40:50.470Z,1.50
2018-09-01T00:41:50.423Z,1.60
2018-09-01T00:42:50.412Z,1.70
2018-09-01T00:43:50.405Z,1.40
2018-09-01T00:44:50.385Z,1.60
2018-09-01T00:45:50.397Z,1.60
2018-09-01T00:46:50.417Z,1.80
2018-09-01T00:47:50.363Z,1.60
2018-09-01T00:48:50.338Z,1.60
2018-09-01T00:49:50.338Z,1.50
2018-09-01T00:50:50.337Z,1.30
2018-09-01T00:51:50.292Z,1.50
2018-09-01T00:52:50.350Z,1.40
2018-09-01T00:53:50.301Z,1.30
2018-09-01T00:54:50.298Z,1.30
2018-09-01T00:55:50.259Z,1.10
2018-09-01T00:56:50.243Z,1.30
2018-09-01T00:57:50.311Z,1.30
2018-09-01T00:58:50.221Z,1.90
2018-09-01T00:59:50.236Z,1.40
2018-09-01T01:00:50.229Z,1.40
2018-09-01T01:01:50.201Z,1.30
2018-09-01T01:02:50.213Z,1.30
2018-09-01T01:03:50.216Z,1.40
2018-09-01T01:04:50.196Z,1.30
2018-09-01T01:05:50.149Z,1.60
2018-09-01T01:06:50.152Z,1.40
2018-09-01T01:07:50.145Z,1.30
2018-09-01T01:08:50.156Z,1.70
2018-09-01T01:09:50.153Z,1.60
2018-09-01T01:10:50.108Z,1.40
2018-09-01T01:11:50.122Z,1.60
2018-09-01T01:12:50.093Z,1.40
2018-09-01T01:13:50.074Z,1.40
2018-09-01T01:14:50.057Z,1.40
2018-09-01T01:15:50.089Z,1.70
2018-09-01T01:16:50.156Z,1.30
2018-09-01T01:17:50.025Z,1.40
2018-09-01T01:18:50.080Z,1.40
2018-09-01T01:19:50.003Z,1.60
2018-09-01T01:20:49.989Z,1.60
2018-09-01T01:21:50.041Z,1.50
2018-09-01T01:22:49.966Z,1.50
2018-09-01T01:23:54.743Z,1.60
2018-09-01T01:24:49.963Z,1.50
2018-09-01T01:25:49.952Z,1.50
2018-09-01T01:26:49.941Z,1.80
2018-09-01T01:27:49.952Z,1.50
2018-09-01T01:28:49.918Z,1.80
2018-09-01T01:29:49.981Z,1.50
2018-09-01T01:30:49.905Z,1.60
2018-09-01T01:31:49.865Z,1.60
2018-09-01T01:32:49.910Z,1.70
2018-09-01T01:33:49.920Z,1.90
2018-09-01T01:34:49.881Z,1.60
2018-09-01T01:35:49.882Z,1.80
2018-09-01T01:36:49.823Z,1.70
2018-09-01T01:37:49.822Z,1.90
2018-09-01T01:38:49.805Z,2.00
2018-09-01T01:39:49.921Z,1.60
2018-09-01T01:40:49.798Z,1.50
2018-09-01T01:41:49.892Z,1.60
2018-09-01T01:42:49.756Z,1.50
2018-09-01T01:43:49.773Z,1.60
2018-09-01T01:44:49.733Z,1.60
2018-09-01T01:45:49.778Z,1.60
2018-09-01T01:46:49.722Z,1.70
2018-09-01T01:47:49.716Z,1.80
2018-09-01T01:48:49.695Z,1.60
2018-09-01T01:49:49.690Z,1.50
2018-09-01T01:50:49.693Z,1.50
2018-09-01T01:51:49.733Z,1.60
2018-09-01T01:52:49.653Z,1.60
2018-09-01T01:53:49.667Z,1.40
2018-09-01T01:54:49.639Z,1.60
2018-09-01T01:55:49.621Z,1.70
2018-09-01T01:56:49.601Z,1.70
2018-09-01T01:57:49.648Z,1.60
2018-09-01T01:58:49.594Z,2.00
2018-09-01T01:59:49.584Z,1.60
2018-09-01T02:00:49.614Z,1.70
2018-09-01T02:01:49.546Z,1.60
2018-09-01T02:02:49.623Z,1.60
2018-09-01T02:03:49.626Z,1.90
2018-09-01T02:04:49.531Z,1.80
2018-09-01T02:05:49.522Z,1.40
2018-09-01T02:06:49.547Z,1.60
2018-09-01T02:07:49.517Z,1.50
2018-09-01T02:08:49.472Z,1.60
2018-09-01T02:09:49.511Z,1.30
2018-09-01T02:10:49.465Z,1.80
2018-09-01T02:11:49.450Z,1.90
2018-09-01T02:12:49.451Z,1.60
2018-09-01T02:13:49.438Z,1.80
2018-09-01T02:14:49.541Z,1.60
2018-09-01T02:15:49.770Z,1.60
2018-09-01T02:16:49.480Z,1.70
2018-09-01T02:17:49.500Z,2.00
2018-09-01T02:18:49.359Z,2.10
2018-09-01T02:19:49.384Z,1.70
2018-09-01T02:20:49.352Z,1.70
2018-09-01T02:21:49.380Z,1.90
2018-09-01T02:22:49.328Z,1.60
2018-09-01T02:23:49.308Z,1.70
2018-09-01T02:24:49.308Z,1.90
2018-09-01T02:25:54.071Z,1.80
2018-09-01T02:26:49.322Z,1.70
2018-09-01T02:27:49.324Z,1.70
2018-09-01T02:28:49.300Z,1.80
2018-09-01T02:29:49.245Z,1.80
2018-09-01T02:30:49.240Z,1.60
2018-09-01T02:31:49.203Z,1.60
2018-09-01T02:32:49.233Z,1.70
2018-09-01T02:33:49.233Z,1.60
2018-09-01T02:34:49.197Z,1.70
2018-09-01T02:35:49.193Z,1.70
2018-09-01T02:36:49.178Z,1.60
2018-09-01T02:37:49.166Z,1.50
2018-09-01T02:38:49.167Z,1.70
2018-09-01T02:39:49.197Z,1.90
2018-09-01T02:40:49.142Z,1.80
2018-09-01T02:41:49.097Z,2.00
2018-09-01T02:42:49.116Z,1.60
2018-09-01T02:43:49.115Z,1.70
2018-09-01T02:44:49.121Z,1.70
2018-09-01T02:45:49.113Z,1.60
2018-09-01T02:46:49.056Z,1.60
2018-09-01T02:47:49.028Z,1.60
2018-09-01T02:48:49.073Z,1.60
2018-09-01T02:49:49.030Z,1.70
2018-09-01T02:51:59.495Z,1.70
2018-09-01T02:52:59.483Z,1.80
2018-09-01T02:53:59.417Z,1.80
2018-09-01T02:54:59.389Z,1.70
2018-09-01T02:55:59.453Z,1.80
2018-09-01T02:56:59.397Z,1.80
2018-09-01T02:57:59.364Z,2.10
2018-09-01T02:58:59.359Z,2.30
2018-09-01T02:59:59.335Z,1.70
2018-09-01T03:00:59.315Z,1.80
2018-09-01T03:01:59.335Z,2.00
2018-09-01T03:02:59.352Z,1.90
2018-09-01T03:03:59.321Z,1.60
2018-09-01T03:04:59.286Z,1.70
2018-09-01T03:05:59.285Z,2.10
2018-09-01T03:06:59.263Z,2.70
2018-09-01T03:07:59.296Z,1.90
2018-09-01T03:08:59.253Z,2.20
2018-09-01T03:09:59.234Z,2.20
2018-09-01T03:10:59.561Z,2.50
2018-09-01T03:11:59.212Z,2.10
2018-09-01T03:12:59.264Z,2.20
2018-09-01T03:13:59.263Z,2.10
2018-09-01T03:14:59.176Z,2.20
2018-09-01T03:15:59.182Z,2.00
2018-09-01T03:16:59.182Z,2.10
2018-09-01T03:17:59.129Z,1.90
2018-09-01T03:18:59.345Z,1.90
2018-09-01T03:19:59.156Z,2.00
2018-09-01T03:20:59.094Z,1.90
2018-09-01T03:21:59.097Z,2.00
2018-09-01T03:22:59.104Z,2.00
2018-09-01T03:23:59.116Z,1.80
2018-09-01T03:24:59.111Z,1.80
2018-09-01T03:25:59.047Z,1.90
2018-09-01T03:27:03.845Z,2.20
2018-09-01T03:27:59.047Z,1.90
2018-09-01T03:28:59.023Z,2.10
2018-09-01T03:29:59.012Z,2.30
2018-09-01T03:30:59.049Z,2.40
2018-09-01T03:31:58.973Z,2.40
2018-09-01T03:32:58.955Z,2.00
2018-09-01T03:33:58.968Z,1.70
2018-09-01T03:34:58.959Z,1.90
2018-09-01T03:35:58.942Z,2.00
2018-09-01T03:36:58.956Z,1.80
2018-09-01T03:37:58.943Z,2.10
2018-09-01T03:38:58.914Z,1.90
2018-09-01T03:39:58.885Z,1.80
2018-09-01T03:40:58.886Z,1.80
2018-09-01T03:41:58.921Z,2.00
2018-09-01T03:42:58.902Z,1.90
2018-09-01T03:43:58.843Z,2.20
2018-09-01T03:44:58.898Z,1.90
2018-09-01T03:45:58.870Z,2.30
2018-09-01T03:46:58.835Z,2.10
2018-09-01T03:47:58.800Z,2.00
2018-09-01T03:48:58.829Z,2.20
2018-09-01T03:49:58.776Z,2.30
2018-09-01T03:50:58.798Z,2.10
2018-09-01T03:51:58.779Z,2.20
2018-09-01T03:52:58.776Z,2.20
2018-09-01T03:53:58.781Z,2.10
2018-09-01T03:54:58.785Z,2.00
2018-09-01T03:55:58.743Z,2.00
2018-09-01T03:56:58.755Z,2.20
2018-09-01T03:57:58.725Z,1.90
2018-09-01T03:58:58.747Z,2.10
2018-09-01T03:59:58.748Z,2.20
2018-09-01T04:00:58.697Z,1.90
2018-09-01T04:01:58.676Z,1.90
2018-09-01T04:02:58.634Z,1.90
2018-09-01T04:03:58.635Z,2.00
2018-09-01T04:04:58.631Z,2.30
2018-09-01T04:05:58.617Z,2.00
2018-09-01T04:06:58.679Z,1.80
2018-09-01T04:07:58.585Z,2.30
2018-09-01T04:08:58.608Z,2.20
2018-09-01T04:09:58.545Z,2.30
2018-09-01T04:10:58.599Z,2.00
2018-09-01T04:11:58.574Z,2.10
2018-09-01T04:12:58.651Z,1.90
2018-09-01T04:13:58.536Z,2.30
2018-09-01T04:14:58.518Z,2.20
2018-09-01T04:15:58.532Z,2.20
2018-09-01T04:16:58.498Z,2.00
2018-09-01T04:17:58.479Z,2.30
2018-09-01T04:20:07.606Z,2.40
2018-09-01T04:21:07.464Z,2.20
2018-09-01T04:22:07.422Z,2.10
2018-09-01T04:23:07.405Z,2.20
2018-09-01T04:24:07.425Z,1.80
2018-09-01T04:25:07.375Z,2.00
2018-09-01T04:26:07.369Z,1.80
2018-09-01T04:27:12.127Z,2.00
2018-09-01T04:28:07.635Z,2.10
2018-09-01T04:29:07.315Z,1.80
2018-09-01T04:30:07.365Z,2.10
2018-09-01T04:31:07.283Z,2.50
2018-09-01T04:32:07.300Z,2.20
2018-09-01T04:33:07.292Z,1.90
2018-09-01T04:34:07.266Z,2.20
2018-09-01T04:35:07.251Z,1.80
2018-09-01T04:36:07.281Z,2.20
2018-09-01T04:37:07.216Z,1.90
2018-09-01T04:38:07.205Z,2.00
2018-09-01T04:39:07.204Z,2.20
2018-09-01T04:40:07.198Z,1.80
2018-09-01T04:41:07.184Z,2.00
2018-09-01T04:42:07.201Z,1.90
2018-09-01T04:43:07.172Z,2.10
2018-09-01T04:44:07.155Z,1.80
2018-09-01T04:45:07.160Z,2.00
2018-09-01T04:46:07.119Z,2.00
2018-09-01T04:47:07.232Z,1.70
2018-09-01T04:48:07.186Z,2.10
2018-09-01T04:49:07.097Z,1.90
2018-09-01T04:50:07.096Z,2.20
2018-09-01T04:52:16.039Z,2.00
2018-09-01T04:53:16.019Z,2.00
2018-09-01T04:54:15.945Z,1.90
2018-09-01T04:55:15.883Z,2.00
2018-09-01T04:56:15.918Z,2.00
2018-09-01T04:57:15.883Z,1.80
2018-09-01T04:58:15.899Z,2.00
2018-09-01T04:59:15.898Z,2.00
2018-09-01T05:00:15.874Z,2.10
2018-09-01T05:01:15.856Z,2.00
2018-09-01T05:02:15.833Z,1.90
2018-09-01T05:03:15.814Z,2.40
2018-09-01T05:04:15.809Z,2.10
2018-09-01T05:05:15.836Z,2.10
2018-09-01T05:06:15.798Z,1.90
2018-09-01T05:07:15.813Z,1.90
2018-09-01T05:08:15.748Z,1.80
2018-09-01T05:09:15.745Z,2.10
2018-09-01T05:10:15.744Z,2.00
2018-09-01T05:11:15.762Z,2.00
2018-09-01T05:12:15.712Z,2.40
2018-09-01T05:13:15.698Z,2.30
2018-09-01T05:14:15.710Z,1.80
2018-09-01T05:15:15.721Z,2.00
2018-09-01T05:16:15.688Z,1.90
2018-09-01T05:17:15.724Z,2.10
2018-09-01T05:18:15.711Z,1.80
2018-09-01T05:19:15.654Z,2.10
2018-09-01T05:20:15.668Z,2.00
2018-09-01T05:21:15.769Z,1.80
2018-09-01T05:22:15.623Z,2.30
2018-09-01T05:23:15.660Z,2.00
2018-09-01T05:24:15.619Z,2.30
2018-09-01T05:25:15.585Z,1.90
2018-09-01T05:26:15.543Z,2.20
2018-09-01T05:27:15.569Z,2.30
2018-09-01T05:28:20.355Z,2.20
2018-09-01T05:29:15.597Z,1.90
2018-09-01T05:30:15.612Z,1.70
2018-09-01T05:31:15.518Z,1.90
2018-09-01T05:32:15.510Z,2.30
2018-09-01T05:33:15.497Z,2.10
2018-09-01T05:34:15.538Z,2.00
2018-09-01T05:35:15.480Z,1.90
2018-09-01T05:36:15.501Z,1.90
2018-09-01T05:37:15.430Z,1.90
2018-09-01T05:38:15.420Z,2.00
2018-09-01T05:39:15.428Z,2.50
2018-09-01T05:40:15.462Z,2.00
2018-09-01T05:41:15.424Z,2.10
2018-09-01T05:42:15.418Z,2.00
2018-09-01T05:43:15.397Z,1.90
2018-09-01T05:44:15.352Z,1.90
2018-09-01T05:45:15.367Z,2.10
2018-09-01T05:46:15.388Z,2.20
2018-09-01T05:47:15.338Z,2.10
2018-09-01T05:48:15.351Z,2.10
2018-09-01T05:49:15.322Z,2.20
2018-09-01T05:50:15.312Z,2.10
2018-09-01T05:51:15.293Z,2.40
2018-09-01T05:52:15.313Z,2.10
2018-09-01T05:53:15.271Z,2.10
2018-09-01T05:54:15.276Z,1.90
2018-09-01T05:55:15.258Z,2.10
2018-09-01T05:56:15.251Z,2.30
2018-09-01T05:57:15.258Z,2.10
2018-09-01T05:58:15.209Z,2.10
2018-09-01T05:59:15.188Z,2.40
2018-09-01T06:00:15.213Z,2.30
2018-09-01T06:01:15.176Z,2.60
2018-09-01T06:02:15.170Z,2.40
2018-09-01T06:03:15.234Z,2.10
2018-09-01T06:04:15.140Z,2.20
2018-09-01T06:05:15.169Z,2.30
2018-09-01T06:06:15.306Z,2.60
2018-09-01T06:07:15.105Z,2.40
2018-09-01T06:08:15.103Z,2.50
2018-09-01T06:09:15.146Z,2.50
2018-09-01T06:10:15.142Z,2.30
2018-09-01T06:11:15.064Z,2.60
2018-09-01T06:12:15.065Z,2.50
2018-09-01T06:13:15.053Z,2.30
2018-09-01T06:14:15.025Z,2.80
2018-09-01T06:15:15.074Z,2.60
2018-09-01T06:16:15.045Z,2.50
2018-09-01T06:17:15.013Z,2.70
2018-09-01T06:18:14.996Z,2.90
2018-09-01T06:19:15.059Z,2.30
2018-09-01T06:20:14.976Z,2.50
2018-09-01T06:21:15.007Z,2.50
2018-09-01T06:22:15.076Z,2.50
2018-09-01T06:23:14.958Z,2.80
2018-09-01T06:24:14.959Z,2.70
2018-09-01T06:25:14.940Z,2.60
2018-09-01T06:26:14.925Z,2.70
2018-09-01T06:27:14.975Z,2.80
2018-09-01T06:28:14.908Z,3.00
2018-09-01T06:29:19.662Z,2.70
2018-09-01T06:30:14.942Z,2.90
2018-09-01T06:31:14.867Z,2.90
2018-09-01T06:32:14.886Z,2.90
2018-09-01T06:33:14.893Z,3.00
2018-09-01T06:34:14.841Z,2.90
2018-09-01T06:35:14.821Z,2.90
2018-09-01T06:36:14.828Z,2.90
2018-09-01T06:37:14.814Z,2.70
2018-09-01T06:38:14.807Z,2.80
2018-09-01T06:39:14.850Z,3.00
2018-09-01T06:40:14.805Z,3.10
2018-09-01T06:41:14.755Z,2.90
2018-09-01T06:42:14.780Z,3.10
2018-09-01T06:43:14.766Z,2.90
2018-09-01T06:44:14.714Z,3.30
2018-09-01T06:45:14.789Z,3.00
2018-09-01T06:46:14.711Z,2.90
2018-09-01T06:47:14.713Z,2.90
2018-09-01T06:48:14.686Z,2.90
2018-09-01T06:49:14.668Z,3.10
2018-09-01T06:50:14.676Z,3.20
2018-09-01T06:51:14.677Z,3.00
2018-09-01T06:52:14.643Z,3.10
2018-09-01T06:54:23.529Z,3.40
2018-09-01T06:55:23.468Z,3.10
2018-09-01T06:56:23.459Z,3.10
2018-09-01T06:57:23.412Z,3.40
2018-09-01T06:58:23.451Z,3.20
2018-09-01T06:59:23.390Z,3.20
2018-09-01T07:00:23.421Z,3.30
2018-09-01T07:01:23.365Z,3.50
2018-09-01T07:02:23.426Z,3.40
2018-09-01T07:03:23.349Z,3.70
2018-09-01T07:04:23.327Z,3.10
2018-09-01T07:05:23.329Z,3.30
2018-09-01T07:06:23.298Z,3.30
2018-09-01T07:07:23.326Z,3.60
2018-09-01T07:08:23.299Z,3.60
2018-09-01T07:09:23.265Z,3.70
2018-09-01T07:10:23.241Z,3.40
2018-09-01T07:11:23.220Z,3.80
2018-09-01T07:12:23.247Z,3.70
2018-09-01T07:13:23.279Z,4.40
2018-09-01T07:14:23.248Z,3.90
2018-09-01T07:15:23.225Z,3.30
2018-09-01T07:16:23.199Z,3.60
2018-09-01T07:17:23.204Z,3.30
2018-09-01T07:18:23.156Z,3.20
2018-09-01T07:19:23.205Z,3.60
2018-09-01T07:20:23.161Z,3.20
2018-09-01T07:21:23.139Z,3.70
2018-09-01T07:22:23.278Z,3.40
2018-09-01T07:23:23.147Z,3.60
2018-09-01T07:24:23.109Z,3.90
2018-09-01T07:25:23.133Z,4.00
2018-09-01T07:26:23.120Z,3.90
2018-09-01T07:27:23.061Z,3.80
2018-09-01T07:28:23.058Z,3.80
2018-09-01T07:29:23.049Z,3.50
2018-09-01T07:30:27.865Z,3.70
2018-09-01T07:31:23.517Z,3.40
2018-09-01T07:32:23.039Z,3.50
2018-09-01T07:33:23.062Z,3.70
2018-09-01T07:34:22.988Z,3.50
2018-09-01T07:35:22.980Z,3.70
2018-09-01T07:36:23.012Z,3.90
2018-09-01T07:37:22.961Z,3.70
2018-09-01T07:38:22.942Z,3.90
2018-09-01T07:39:22.985Z,3.50
2018-09-01T07:41:32.984Z,3.10
2018-09-01T07:42:32.769Z,3.20
2018-09-01T07:43:32.737Z,3.60
2018-09-01T07:44:32.722Z,3.70
2018-09-01T07:45:32.790Z,3.80
2018-09-01T07:46:32.731Z,3.30
2018-09-01T07:47:32.753Z,3.20
2018-09-01T07:48:32.746Z,3.90
2018-09-01T07:49:32.677Z,3.90
2018-09-01T07:50:32.646Z,3.70
2018-09-01T07:51:32.633Z,3.90
2018-09-01T07:52:32.634Z,3.90
2018-09-01T07:54:42.541Z,4.20
2018-09-01T07:55:42.081Z,4.10
2018-09-01T07:56:42.082Z,3.80
2018-09-01T07:57:42.055Z,3.90
2018-09-01T07:58:42.142Z,3.80
2018-09-01T07:59:42.055Z,3.80
2018-09-01T08:00:42.011Z,3.40
2018-09-01T08:01:41.976Z,3.90
2018-09-01T08:02:42.079Z,3.80
2018-09-01T08:03:41.969Z,3.50
2018-09-01T08:04:42.026Z,3.40
2018-09-01T08:05:41.952Z,3.60
2018-09-01T08:06:41.952Z,3.50
2018-09-01T08:07:41.909Z,3.60
2018-09-01T08:08:41.897Z,3.50
2018-09-01T08:09:41.901Z,3.60
2018-09-01T08:10:41.913Z,3.50
2018-09-01T08:11:41.890Z,3.50
2018-09-01T08:12:41.893Z,3.10
2018-09-01T08:13:41.951Z,3.90
2018-09-01T08:14:41.950Z,3.20
2018-09-01T08:15:41.908Z,3.30
2018-09-01T08:16:41.876Z,3.40
2018-09-01T08:17:41.840Z,3.50
2018-09-01T08:18:41.833Z,3.50
2018-09-01T08:19:41.825Z,3.50
2018-09-01T08:20:41.808Z,3.70
2018-09-01T08:21:41.769Z,3.40
2018-09-01T08:22:41.840Z,3.80
2018-09-01T08:23:41.902Z,3.40
2018-09-01T08:24:41.734Z,3.30
2018-09-01T08:25:41.735Z,3.00
2018-09-01T08:26:41.714Z,3.10
2018-09-01T08:27:41.746Z,3.50
2018-09-01T08:28:41.841Z,3.10
2018-09-01T08:29:41.714Z,3.30
2018-09-01T08:30:41.754Z,2.90
2018-09-01T08:31:46.457Z,3.00
2018-09-01T08:32:41.680Z,3.50
2018-09-01T08:33:41.757Z,3.50
2018-09-01T08:34:41.729Z,2.60
2018-09-01T08:35:41.932Z,2.80
2018-09-01T08:36:41.603Z,3.20
2018-09-01T08:37:41.642Z,3.20
2018-09-01T08:38:41.565Z,3.00
2018-09-01T08:39:41.632Z,2.80
2018-09-01T08:40:41.624Z,3.10
2018-09-01T08:41:41.653Z,3.10
2018-09-01T08:42:41.546Z,2.90
2018-09-01T08:43:41.561Z,3.40
2018-09-01T08:44:41.560Z,2.90
2018-09-01T08:45:41.497Z,3.00
2018-09-01T08:46:41.569Z,3.10
2018-09-01T08:47:41.504Z,3.00
2018-09-01T08:48:41.498Z,3.10
2018-09-01T08:49:41.457Z,3.00
2018-09-01T08:50:41.435Z,2.80
2018-09-01T08:51:41.501Z,3.40
2018-09-01T08:52:41.478Z,2.90
2018-09-01T08:53:41.414Z,2.70
2018-09-01T08:54:41.400Z,3.00
2018-09-01T08:55:41.477Z,2.80
2018-09-01T08:56:41.455Z,2.50
2018-09-01T08:57:41.431Z,3.60
2018-09-01T08:58:41.399Z,3.00
2018-09-01T08:59:41.380Z,2.70
2018-09-01T09:00:41.397Z,2.80
2018-09-01T09:01:41.364Z,2.70
2018-09-01T09:02:41.361Z,2.70
2018-09-01T09:03:41.321Z,2.70
2018-09-01T09:04:41.380Z,2.30
2018-09-01T09:05:41.392Z,2.50
2018-09-01T09:06:41.311Z,2.80
2018-09-01T09:07:41.343Z,2.30
2018-09-01T09:08:41.242Z,2.30
2018-09-01T09:09:41.253Z,2.50
2018-09-01T09:10:41.290Z,2.40
2018-09-01T09:11:41.248Z,2.30
2018-09-01T09:12:41.247Z,2.50
2018-09-01T09:13:41.181Z,2.40
2018-09-01T09:14:41.219Z,2.60
2018-09-01T09:15:44.188Z,2.30
2018-09-01T09:16:41.233Z,2.50
2018-09-01T09:17:41.161Z,2.40
2018-09-01T09:18:41.232Z,2.30
2018-09-01T09:19:41.178Z,2.60
2018-09-01T09:20:41.168Z,2.60
2018-09-01T09:21:41.129Z,2.00
2018-09-01T09:22:41.157Z,2.50
2018-09-01T09:23:41.112Z,2.30
2018-09-01T09:24:41.205Z,1.90
2018-09-01T09:25:41.064Z,1.90
2018-09-01T09:26:41.065Z,1.50
2018-09-01T09:27:41.038Z,2.00
2018-09-01T09:28:41.088Z,2.00
2018-09-01T09:29:41.071Z,1.80
2018-09-01T09:30:41.044Z,2.20
2018-09-01T09:31:41.032Z,1.80
2018-09-01T09:32:45.793Z,2.00
2018-09-01T09:33:40.990Z,2.10
2018-09-01T09:34:41.018Z,1.70
2018-09-01T09:35:41.028Z,2.00
2018-09-01T09:36:40.981Z,2.10
2018-09-01T09:37:40.934Z,1.80
2018-09-01T09:38:41.262Z,1.80
2018-09-01T09:39:41.018Z,1.90
2018-09-01T09:40:40.963Z,2.00
2018-09-01T09:41:40.963Z,1.90
2018-09-01T09:42:40.900Z,1.80
2018-09-01T09:43:40.885Z,1.80
2018-09-01T09:44:40.890Z,1.50
2018-09-01T09:45:40.910Z,1.70
2018-09-01T09:46:40.907Z,1.90
2018-09-01T09:47:40.958Z,1.80
2018-09-01T09:48:40.813Z,1.10
2018-09-01T09:49:40.792Z,1.20
2018-09-01T09:50:40.863Z,1.10
2018-09-01T09:51:40.823Z,1.40
2018-09-01T09:52:40.818Z,1.30
2018-09-01T09:53:40.855Z,1.20
2018-09-01T09:54:40.794Z,1.00
2018-09-01T09:55:40.740Z,1.00
2018-09-01T09:56:40.718Z,1.00
2018-09-01T09:57:40.919Z,0.90
2018-09-01T09:58:40.726Z,1.10
2018-09-01T09:59:40.802Z,1.10
2018-09-01T10:00:40.713Z,1.20
2018-09-01T10:01:40.703Z,1.10
2018-09-01T10:02:40.739Z,1.00
2018-09-01T10:03:40.716Z,1.00
2018-09-01T10:04:40.685Z,1.00
2018-09-01T10:05:43.731Z,0.90
2018-09-01T10:06:40.654Z,1.10
2018-09-01T10:07:40.661Z,0.90
2018-09-01T10:08:40.616Z,1.00
2018-09-01T10:09:40.625Z,0.90
2018-09-01T10:10:40.580Z,1.00
2018-09-01T10:11:40.607Z,1.00
2018-09-01T10:12:40.677Z,1.30
2018-09-01T10:13:40.540Z,1.10
2018-09-01T10:14:40.513Z,1.10
2018-09-01T10:15:40.615Z,0.90
2018-09-01T10:16:43.611Z,0.90
2018-09-01T10:17:40.804Z,1.10
2018-09-01T10:18:40.503Z,1.20
2018-09-01T10:19:41.283Z,0.90
2018-09-01T10:20:40.490Z,0.80
2018-09-01T10:21:40.516Z,1.10
2018-09-01T10:22:40.444Z,1.00
2018-09-01T10:23:40.551Z,0.80
2018-09-01T10:24:40.546Z,1.00
2018-09-01T10:25:40.560Z,1.00
2018-09-01T10:26:40.437Z,0.90
2018-09-01T10:27:40.609Z,0.90
2018-09-01T10:28:40.428Z,0.90
2018-09-01T10:29:40.463Z,0.90
2018-09-01T10:30:40.347Z,0.90
2018-09-01T10:31:40.353Z,1.10
2018-09-01T10:32:42.538Z,0.80
2018-09-01T10:33:45.158Z,1.00
2018-09-01T10:34:40.624Z,0.90
2018-09-01T10:35:40.296Z,0.90
2018-09-01T10:36:40.315Z,1.00
2018-09-01T10:37:40.269Z,0.90
2018-09-01T10:38:40.295Z,0.80
2018-09-01T10:39:40.358Z,0.90
2018-09-01T10:40:40.283Z,1.00
2018-09-01T10:41:40.211Z,0.80
2018-09-01T10:42:40.270Z,1.00
2018-09-01T10:43:40.225Z,0.90
2018-09-01T10:44:40.278Z,0.80
2018-09-01T10:45:40.218Z,0.70
2018-09-01T10:46:40.221Z,1.00
2018-09-01T10:47:40.162Z,0.90
2018-09-01T10:48:40.231Z,1.10
2018-09-01T10:49:40.148Z,0.90
2018-09-01T10:50:40.131Z,1.10
2018-09-01T10:51:40.186Z,0.90
2018-09-01T10:52:40.145Z,0.90
2018-09-01T10:53:40.117Z,0.80
2018-09-01T10:54:40.079Z,0.90
2018-09-01T10:55:40.058Z,1.10
2018-09-01T10:56:40.077Z,0.90
2018-09-01T10:57:40.108Z,0.90
2018-09-01T10:58:40.073Z,1.10
2018-09-01T10:59:40.231Z,0.90
2018-09-01T11:00:40.065Z,1.20
2018-09-01T11:01:39.998Z,0.80
2018-09-01T11:02:39.994Z,1.20
2018-09-01T11:03:40.050Z,0.90
2018-09-01T11:04:39.994Z,1.00
2018-09-01T11:05:40.001Z,0.90
2018-09-01T11:06:39.994Z,1.00
2018-09-01T11:07:39.969Z,0.90
2018-09-01T11:08:39.944Z,0.80
2018-09-01T11:09:39.984Z,0.70
2018-09-01T11:10:42.968Z,1.00
2018-09-01T11:11:39.910Z,1.10
2018-09-01T11:12:42.899Z,0.90
2018-09-01T11:13:40.008Z,0.90
2018-09-01T11:14:39.921Z,0.70
2018-09-01T11:15:39.977Z,0.90
2018-09-01T11:16:39.974Z,0.90
2018-09-01T11:17:39.944Z,0.90
2018-09-01T11:18:39.926Z,0.80
2018-09-01T11:19:39.836Z,0.70
2018-09-01T11:20:39.942Z,0.90
2018-09-01T11:21:42.908Z,0.70
2018-09-01T11:22:39.835Z,1.10
2018-09-01T11:23:39.766Z,0.60
2018-09-01T11:24:39.797Z,0.80
2018-09-01T11:25:39.796Z,0.70
2018-09-01T11:26:39.935Z,0.90
2018-09-01T11:27:39.829Z,0.70
2018-09-01T11:28:39.798Z,0.70
2018-09-01T11:29:39.701Z,0.80
2018-09-01T11:30:39.749Z,0.80
2018-09-01T11:31:39.719Z,0.80
2018-09-01T11:32:39.779Z,0.60
2018-09-01T11:33:39.653Z,0.90
2018-09-01T11:34:44.426Z,0.80
2018-09-01T11:35:39.766Z,0.70
2018-09-01T11:36:39.687Z,0.70
2018-09-01T11:37:39.733Z,0.80
2018-09-01T11:38:39.684Z,0.70
2018-09-01T11:39:39.577Z,0.80
2018-09-01T11:40:39.584Z,0.70
2018-09-01T11:41:39.579Z,0.60
2018-09-01T11:42:39.729Z,0.60
2018-09-01T11:43:39.547Z,0.70
2018-09-01T11:44:39.597Z,0.70
2018-09-01T11:45:39.684Z,0.50
2018-09-01T11:46:39.617Z,0.70
2018-09-01T11:47:39.501Z,0.80
2018-09-01T11:48:39.543Z,0.70
2018-09-01T11:49:39.577Z,0.60
2018-09-01T11:50:39.511Z,0.60
2018-09-01T11:51:39.472Z,0.50
2018-09-01T11:52:39.508Z,0.60
2018-09-01T11:53:39.541Z,0.70
2018-09-01T11:54:39.440Z,0.70
2018-09-01T11:55:39.425Z,0.80
2018-09-01T11:56:39.548Z,0.80
2018-09-01T11:58:00.400Z,0.60
2018-09-01T11:58:39.398Z,0.70
2018-09-01T11:59:39.453Z,0.70
2018-09-01T12:00:42.396Z,0.70
2018-09-01T12:01:39.364Z,0.60
2018-09-01T12:02:39.535Z,0.60
2018-09-01T12:03:39.367Z,0.50
2018-09-01T12:04:39.368Z,0.50
2018-09-01T12:05:39.314Z,0.80
2018-09-01T12:06:39.298Z,0.50
2018-09-01T12:07:39.453Z,0.70
2018-09-01T12:08:39.338Z,0.50
2018-09-01T12:09:39.373Z,0.60
2018-09-01T12:10:39.328Z,0.60
2018-09-01T12:11:39.385Z,0.60
2018-09-01T12:12:39.379Z,0.70
2018-09-01T12:13:39.220Z,0.70
2018-09-01T12:14:39.235Z,0.70
2018-09-01T12:15:39.307Z,0.80
2018-09-01T12:16:39.187Z,0.70
2018-09-01T12:17:39.223Z,0.80
2018-09-01T12:18:39.191Z,0.50
2018-09-01T12:19:39.231Z,0.70
2018-09-01T12:20:42.354Z,0.50
2018-09-01T12:21:39.177Z,0.70
2018-09-01T12:22:39.148Z,0.50
2018-09-01T12:23:39.173Z,0.50
2018-09-01T12:24:39.162Z,0.70
2018-09-01T12:25:39.150Z,0.70
2018-09-01T12:26:39.140Z,0.60
2018-09-01T12:27:39.248Z,0.60
2018-09-01T12:28:39.127Z,0.70
2018-09-01T12:29:39.124Z,0.60
2018-09-01T12:30:39.110Z,0.70
2018-09-01T12:31:39.277Z,0.60
2018-09-01T12:32:39.031Z,0.50
2018-09-01T12:33:39.021Z,0.60
2018-09-01T12:34:38.990Z,0.70
2018-09-01T12:35:43.769Z,0.80
2018-09-01T12:36:38.979Z,0.60
2018-09-01T12:37:39.107Z,0.70
2018-09-01T12:38:38.957Z,0.70
2018-09-01T12:39:38.984Z,0.60
2018-09-01T12:40:38.989Z,0.50
2018-09-01T12:41:42.282Z,0.70
2018-09-01T12:42:38.936Z,0.60
2018-09-01T12:43:38.941Z,0.70
2018-09-01T12:44:38.870Z,0.50
2018-09-01T12:45:38.912Z,0.80
2018-09-01T12:46:38.927Z,0.80
2018-09-01T12:47:38.871Z,0.60
2018-09-01T12:48:38.843Z,0.60
2018-09-01T12:49:40.116Z,0.60
2018-09-01T12:50:38.822Z,0.80
2018-09-01T12:51:38.907Z,0.60
2018-09-01T12:52:38.836Z,0.60
2018-09-01T12:53:38.817Z,0.60
2018-09-01T12:54:38.826Z,0.70
2018-09-01T12:55:38.805Z,0.70
2018-09-01T12:56:38.750Z,0.70
2018-09-01T12:57:41.854Z,0.70
2018-09-01T12:58:38.810Z,0.70
2018-09-01T12:59:38.733Z,0.70
2018-09-01T13:00:38.758Z,0.60
2018-09-01T13:01:38.737Z,0.80
2018-09-01T13:02:38.743Z,0.70
2018-09-01T13:03:38.678Z,0.70
2018-09-01T13:04:38.657Z,0.70
2018-09-01T13:05:38.660Z,0.70
2018-09-01T13:06:38.676Z,0.60
2018-09-01T13:07:38.741Z,0.90
2018-09-01T13:08:38.649Z,0.60
2018-09-01T13:09:38.633Z,0.80
2018-09-01T13:10:38.586Z,0.80
2018-09-01T13:11:38.613Z,0.90
2018-09-01T13:12:38.575Z,0.80
2018-09-01T13:13:38.656Z,0.70
2018-09-01T13:14:38.607Z,0.80
2018-09-01T13:15:38.595Z,0.70
2018-09-01T13:16:38.567Z,0.60
2018-09-01T13:17:38.518Z,0.80
2018-09-01T13:18:38.592Z,0.90
2018-09-01T13:19:38.647Z,0.70
2018-09-01T13:20:38.538Z,0.70
2018-09-01T13:21:38.478Z,0.70
2018-09-01T13:22:38.627Z,0.80
2018-09-01T13:23:38.467Z,0.90
2018-09-01T13:24:38.441Z,0.60
2018-09-01T13:25:38.474Z,0.90